Time;durP1;ratioP1;P1;durP2;ratioP2;P2;SDS_P1;SDS_P2;PMS_P1;PMS_P2;Temp;Humidity;BMP_temperature;BMP_pressure;BME280_temperature;BME280_humidity;BME280_pressure;Samples;Min_cycle;Max_cycle;Signal;HPM_P1;HPM_P2
2021/10/13 00:01:35;;;;;;;29.42;12.18;;;;;;;11.75;49.50;99280.25;5024007;28;20033;-52
2021/10/13 00:04:00;;;;;;;27.60;11.63;;;;;;;11.80;49.02;99280.91;5052346;28;20041;-51
2021/10/13 00:06:26;;;;;;;27.80;12.50;;;;;;;11.81;49.04;99280.84;5020808;28;20038;-51
2021/10/13 00:08:52;;;;;;;28.90;11.70;;;;;;;11.77;49.07;99271.47;5012928;28;20037;-53
2021/10/13 00:11:18;;;;;;;23.92;11.80;;;;;;;11.77;48.71;99268.03;5023451;28;20086;-52
2021/10/13 00:13:43;;;;;;;23.10;11.05;;;;;;;11.68;49.18;99268.41;5043624;28;20044;-49
2021/10/13 00:16:09;;;;;;;26.60;11.38;;;;;;;11.66;48.99;99263.28;5030380;28;20476;-52
2021/10/13 00:18:35;;;;;;;26.90;11.27;;;;;;;11.69;49.04;99273.53;5039052;28;20087;-49
2021/10/13 00:21:00;;;;;;;23.33;11.57;;;;;;;11.66;48.76;99262.44;5030262;28;20040;-49
2021/10/13 00:23:26;;;;;;;25.77;12.10;;;;;;;11.65;48.91;99258.97;5027740;28;20050;-50
2021/10/13 00:25:52;;;;;;;22.23;11.38;;;;;;;11.71;48.98;99256.09;5026271;28;20051;-50
2021/10/13 00:28:18;;;;;;;23.10;11.95;;;;;;;11.68;49.24;99243.19;5038696;28;20123;-52
2021/10/13 00:30:44;;;;;;;25.67;12.65;;;;;;;11.80;48.90;99249.66;5034005;28;20036;-52
2021/10/13 00:33:09;;;;;;;24.33;12.07;;;;;;;11.78;49.16;99252.31;5045466;28;20044;-50
2021/10/13 00:35:35;;;;;;;23.45;11.88;;;;;;;11.79;49.22;99248.78;5030715;28;20067;-51
2021/10/13 00:38:01;;;;;;;23.73;11.38;;;;;;;11.82;49.42;99245.22;5044539;28;20087;-52
2021/10/13 00:40:29;;;;;;;25.30;11.43;;;;;;;11.85;48.85;99253.72;5042383;28;20069;-50
2021/10/13 00:42:55;;;;;;;21.75;11.35;;;;;;;11.85;48.70;99243.31;5032899;28;20455;-49
2021/10/13 00:45:21;;;;;;;23.13;11.50;;;;;;;11.83;49.17;99236.47;5032887;28;20037;-49
2021/10/13 00:47:47;;;;;;;26.08;11.73;;;;;;;11.81;48.66;99236.56;5031535;28;20072;-50
2021/10/13 00:50:13;;;;;;;24.65;11.32;;;;;;;11.79;49.26;99237.53;5030801;28;20061;-50
2021/10/13 00:52:43;;;;;;;21.33;11.65;;;;;;;11.74;49.60;99218.69;5041489;28;20557;-52
2021/10/13 00:55:17;;;;;;;25.92;12.82;;;;;;;11.85;49.24;99232.03;5041577;28;20049;-52
2021/10/13 00:57:45;;;;;;;25.52;11.75;;;;;;;11.86;49.88;99233.75;5029870;28;20089;-49
2021/10/13 01:00:11;;;;;;;22.20;11.57;;;;;;;11.86;49.84;99238.94;5024180;28;20512;-57
2021/10/13 01:02:43;;;;;;;24.02;11.52;;;;;;;11.78;49.66;99226.25;5040397;28;20496;-52
2021/10/13 01:06:06;;;;;;;29.83;12.82;;;;;;;11.82;49.31;99224.38;5051376;28;20036;-53
2021/10/13 01:08:43;;;;;;;19.63;11.38;;;;;;;11.73;49.57;99237.81;5021836;28;20539;-56
2021/10/13 01:11:17;;;;;;;26.50;12.43;;;;;;;11.73;49.77;99232.59;4977254;28;20038;-50
2021/10/13 01:13:55;;;;;;;23.17;11.98;;;;;;;11.70;49.80;99233.56;5021744;28;20045;-49
2021/10/13 01:16:46;;;;;;;25.70;11.80;;;;;;;11.71;50.20;99234.41;5018908;28;20045;-50
2021/10/13 01:19:43;;;;;;;24.77;12.00;;;;;;;11.74;49.44;99234.28;5046549;28;20055;-49
2021/10/13 01:22:38;;;;;;;23.50;11.52;;;;;;;11.73;49.61;99237.81;5034479;28;20052;-47
2021/10/13 01:25:18;;;;;;;23.40;11.85;;;;;;;11.69;49.57;99238.84;5031518;28;20042;-50
2021/10/13 01:27:52;;;;;;;21.15;11.57;;;;;;;11.69;49.83;99233.63;5037341;28;20052;-47
2021/10/13 01:30:20;;;;;;;24.83;11.93;;;;;;;11.67;49.69;99227.66;5048894;28;20138;-52
2021/10/13 01:32:55;;;;;;;23.42;12.27;;;;;;;11.65;49.98;99245.97;5027258;28;20437;-51
2021/10/13 01:35:22;;;;;;;25.30;11.57;;;;;;;11.65;50.13;99240.75;5028315;28;20045;-53
2021/10/13 01:37:51;;;;;;;24.88;11.75;;;;;;;11.63;50.21;99233.91;5039293;28;20120;-48
2021/10/13 01:40:19;;;;;;;24.45;11.68;;;;;;;11.66;50.03;99229.44;5037371;28;20045;-50
2021/10/13 01:42:47;;;;;;;22.25;11.40;;;;;;;11.69;50.68;99218.00;5048931;28;20089;-49
2021/10/13 01:45:15;;;;;;;20.20;11.70;;;;;;;11.68;50.46;99218.91;5047373;28;20040;-51
2021/10/13 01:47:44;;;;;;;19.55;11.68;;;;;;;11.63;50.45;99226.94;5045154;28;20052;-53
2021/10/13 01:50:10;;;;;;;23.63;10.57;;;;;;;11.52;50.65;99221.38;5030101;28;20063;-52
2021/10/13 01:52:37;;;;;;;22.98;10.85;;;;;;;11.40;51.11;99201.97;5036409;28;20037;-52
2021/10/13 01:55:04;;;;;;;27.50;12.20;;;;;;;11.47;51.01;99219.00;5023478;28;20048;-51
2021/10/13 01:57:30;;;;;;;18.70;11.45;;;;;;;11.48;50.63;99215.47;5047747;28;20041;-52
2021/10/13 01:59:57;;;;;;;21.20;10.68;;;;;;;11.53;50.79;99228.28;5027562;28;20041;-49
2021/10/13 02:02:30;;;;;;;23.85;11.35;;;;;;;11.54;50.91;99203.09;5013046;28;20155;-51
2021/10/13 02:04:57;;;;;;;24.63;11.55;;;;;;;11.58;51.46;99202.03;5011155;28;20045;-52
2021/10/13 02:07:23;;;;;;;21.52;11.65;;;;;;;11.65;51.17;99206.91;5040204;28;20471;-51
2021/10/13 02:09:51;;;;;;;21.92;11.57;;;;;;;11.68;50.58;99217.16;5050115;28;20059;-51
2021/10/13 02:12:18;;;;;;;24.77;11.27;;;;;;;11.62;51.00;99214.84;5013927;28;20043;-49
2021/10/13 02:14:44;;;;;;;21.83;11.18;;;;;;;11.55;51.04;99208.25;5029678;28;20041;-48
2021/10/13 02:17:11;;;;;;;19.20;10.63;;;;;;;11.57;51.48;99210.75;5019804;28;20048;-50
2021/10/13 02:19:39;;;;;;;26.95;12.18;;;;;;;11.57;51.15;99208.16;5029576;28;20037;-48
2021/10/13 02:22:05;;;;;;;22.95;10.90;;;;;;;11.56;51.44;99207.34;5026443;28;20052;-51
2021/10/13 02:24:46;;;;;;;20.27;10.45;;;;;;;11.55;51.72;99196.97;5016710;28;20469;-48
2021/10/13 02:27:23;;;;;;;19.58;10.30;;;;;;;11.50;51.64;99191.16;5044144;28;20045;-50
2021/10/13 02:29:49;;;;;;;25.00;10.13;;;;;;;11.56;51.73;99211.69;5049334;28;20091;-50
2021/10/13 02:32:15;;;;;;;17.85;10.38;;;;;;;11.49;51.57;99211.13;5031105;28;20060;-48
2021/10/13 02:34:42;;;;;;;20.85;10.30;;;;;;;11.43;52.05;99214.84;5030674;28;20051;-53
2021/10/13 02:37:08;;;;;;;19.38;10.02;;;;;;;11.48;51.92;99212.03;5028015;28;20056;-48
2021/10/13 02:39:34;;;;;;;26.42;11.52;;;;;;;11.39;51.71;99184.66;5047280;28;20036;-50
2021/10/13 02:41:59;;;;;;;23.02;10.25;;;;;;;11.51;51.97;99193.69;5005102;28;20045;-50
2021/10/13 02:44:25;;;;;;;22.65;10.63;;;;;;;11.52;51.95;99197.94;5047842;28;20559;-48
2021/10/13 02:46:55;;;;;;;21.90;9.75;;;;;;;11.39;51.83;99202.88;5043226;28;20041;-51
2021/10/13 02:49:30;;;;;;;20.85;9.63;;;;;;;11.34;52.53;99199.66;5018632;28;20056;-52
2021/10/13 02:52:06;;;;;;;22.92;9.48;;;;;;;11.32;52.29;99205.81;5040354;28;20075;-49
2021/10/13 02:54:49;;;;;;;23.00;10.52;;;;;;;11.35;52.09;99203.09;5042391;28;20044;-52
2021/10/13 02:57:15;;;;;;;17.23;9.93;;;;;;;11.32;52.32;99205.81;5045065;28;20040;-49
2021/10/13 02:59:42;;;;;;;18.80;10.32;;;;;;;11.31;52.44;99207.59;5049361;28;20040;-50
2021/10/13 03:02:27;;;;;;;24.27;9.90;;;;;;;11.32;52.29;99203.22;5038552;28;20045;-51
2021/10/13 03:05:11;;;;;;;17.63;9.43;;;;;;;11.31;52.28;99202.38;5061784;28;20495;-54
2021/10/13 03:07:39;;;;;;;20.25;9.63;;;;;;;11.27;52.42;99195.63;5043414;28;20577;-52
2021/10/13 03:10:06;;;;;;;26.63;10.23;;;;;;;11.31;52.18;99191.97;5044136;28;20041;-53
2021/10/13 03:12:49;;;;;;;19.30;9.35;;;;;;;11.24;52.35;99180.16;5042637;28;20885;-50
2021/10/13 03:15:17;;;;;;;20.45;9.10;;;;;;;11.33;52.38;99192.75;5045504;28;20284;-54
2021/10/13 03:17:46;;;;;;;26.85;9.25;;;;;;;11.36;51.84;99192.59;5030147;28;20040;-49
2021/10/13 03:20:12;;;;;;;;;;;;;;;11.35;52.47;99197.91;5027732;28;20132;-50
2021/10/13 03:22:39;;;;;;;20.20;9.50;;;;;;;11.29;52.71;99191.22;5027361;28;20257;-49
2021/10/13 03:25:05;;;;;;;17.10;9.50;;;;;;;11.30;53.00;99187.69;5036256;28;20094;-49
2021/10/13 03:27:32;;;;;;;23.15;9.13;;;;;;;11.20;53.07;99178.59;5047478;28;20111;-50
2021/10/13 03:29:57;;;;;;;20.83;8.80;;;;;;;11.16;53.25;99179.66;5038284;28;20041;-51
2021/10/13 03:32:23;;;;;;;23.98;9.73;;;;;;;11.15;53.36;99177.13;5046573;28;20095;-49
2021/10/13 03:34:49;;;;;;;26.25;9.77;;;;;;;11.09;53.58;99178.25;5029894;28;20072;-49
2021/10/13 03:37:16;;;;;;;21.77;8.95;;;;;;;11.04;54.26;99175.81;5019455;28;20033;-51
2021/10/13 03:39:45;;;;;;;18.80;9.93;;;;;;;10.87;54.73;99149.75;5029672;28;20041;-49
2021/10/13 03:42:11;;;;;;;20.88;9.40;;;;;;;10.93;54.81;99170.28;5029848;28;20033;-52
2021/10/13 03:44:37;;;;;;;22.75;9.48;;;;;;;10.87;55.15;99164.50;5006777;28;20092;-48
2021/10/13 03:47:05;;;;;;;24.63;9.65;;;;;;;10.89;55.11;99173.91;5009852;28;20049;-48
2021/10/13 03:49:30;;;;;;;18.05;9.75;;;;;;;10.98;54.99;99180.47;5026145;28;20065;-50
2021/10/13 03:51:56;;;;;;;24.40;9.15;;;;;;;10.98;54.81;99170.06;5024314;28;20100;-52
2021/10/13 03:54:22;;;;;;;16.33;9.13;;;;;;;10.97;54.75;99170.97;5026266;28;20073;-49
2021/10/13 03:56:49;;;;;;;16.35;8.95;;;;;;;10.88;54.95;99143.63;5026740;28;20046;-51
2021/10/13 03:59:15;;;;;;;16.25;8.70;;;;;;;11.05;54.50;99168.88;5045063;28;20056;-51
2021/10/13 04:01:41;;;;;;;23.33;9.38;;;;;;;11.01;54.91;99151.72;5029761;28;20373;-50
2021/10/13 04:04:07;;;;;;;24.25;9.25;;;;;;;11.17;54.19;99160.53;5025445;28;20108;-51
2021/10/13 04:06:32;;;;;;;16.52;9.00;;;;;;;11.15;54.67;99161.53;5018347;28;20041;-50
2021/10/13 04:08:58;;;;;;;21.80;8.60;;;;;;;11.15;54.14;99169.31;5011170;28;20046;-49
2021/10/13 04:11:24;;;;;;;17.65;8.88;;;;;;;11.08;54.49;99171.34;5021743;28;20037;-51
2021/10/13 04:13:50;;;;;;;14.85;8.98;;;;;;;11.10;54.63;99166.06;5033444;28;20536;-51
2021/10/13 04:16:16;;;;;;;18.45;8.40;;;;;;;11.02;54.44;99162.06;5027850;28;20054;-50
2021/10/13 04:18:42;;;;;;;16.52;9.02;;;;;;;11.16;54.45;99171.84;5022807;28;20056;-50
2021/10/13 04:21:08;;;;;;;16.70;9.10;;;;;;;11.11;54.33;99173.81;5064700;28;20544;-51
2021/10/13 04:23:33;;;;;;;18.77;8.75;;;;;;;11.13;54.28;99176.34;5028181;28;20041;-51
2021/10/13 04:25:59;;;;;;;17.77;8.57;;;;;;;11.13;54.46;99176.34;5029765;28;20040;-48
2021/10/13 04:28:25;;;;;;;20.77;8.52;;;;;;;11.05;54.55;99169.72;5029021;28;20045;-49
2021/10/13 04:30:51;;;;;;;17.23;8.65;;;;;;;11.03;54.20;99165.50;5043226;28;20072;-50
2021/10/13 04:33:16;;;;;;;17.67;8.90;;;;;;;11.03;54.55;99144.69;5029029;28;20037;-55
2021/10/13 04:35:42;;;;;;;14.68;8.55;;;;;;;11.11;54.14;99163.41;5029239;28;20041;-51
2021/10/13 04:38:08;;;;;;;16.63;8.30;;;;;;;11.06;54.54;99170.56;5039426;28;20590;-49
2021/10/13 04:40:34;;;;;;;20.20;8.45;;;;;;;10.95;54.78;99149.38;5039306;28;20044;-48
2021/10/13 04:43:00;;;;;;;20.38;9.02;;;;;;;11.12;54.36;99170.28;5039540;28;20037;-47
2021/10/13 04:45:27;;;;;;;18.67;8.73;;;;;;;11.03;54.93;99168.13;5032326;28;20052;-50
2021/10/13 04:47:52;;;;;;;16.83;7.90;;;;;;;10.89;54.63;99155.69;5031901;28;20455;-52
2021/10/13 04:50:18;;;;;;;17.67;8.43;;;;;;;10.96;54.47;99158.88;5030406;28;20103;-53
2021/10/13 04:52:44;;;;;;;23.60;8.95;;;;;;;10.97;54.57;99157.97;5042146;28;20036;-52
2021/10/13 04:55:11;;;;;;;24.67;8.27;;;;;;;10.91;54.41;99151.28;5018972;28;20450;-52
2021/10/13 04:57:37;;;;;;;16.05;8.20;;;;;;;10.98;54.68;99167.47;5028675;28;20124;-48
2021/10/13 05:00:06;;;;;;;19.45;8.10;;;;;;;10.96;54.57;99153.69;5030635;28;20065;-50
2021/10/13 05:02:32;;;;;;;16.15;7.88;;;;;;;10.99;54.91;99172.59;5061980;28;20041;-55
2021/10/13 05:04:58;;;;;;;17.02;8.68;;;;;;;10.93;55.04;99162.47;5011224;28;20044;-54
2021/10/13 05:07:23;;;;;;;16.35;8.43;;;;;;;10.91;55.31;99166.88;5029814;28;20037;-54
2021/10/13 05:09:49;;;;;;;19.95;8.98;;;;;;;10.80;56.96;99171.72;5038857;28;20072;-50
2021/10/13 05:12:15;;;;;;;22.73;10.20;;;;;;;10.51;59.77;99177.31;5046114;28;20550;-52
2021/10/13 05:14:41;;;;;;;18.58;8.48;;;;;;;10.26;61.60;99184.44;5040535;28;20048;-52
2021/10/13 05:17:07;;;;;;;20.73;9.55;;;;;;;9.93;62.30;99163.25;5013730;28;20065;-52
2021/10/13 05:19:32;;;;;;;20.77;9.63;;;;;;;9.93;63.55;99194.41;5059662;28;20406;-50
2021/10/13 05:22:01;;;;;;;19.02;9.80;;;;;;;9.81;65.16;99190.53;5038915;28;20163;-60
2021/10/13 05:24:27;;;;;;;19.55;9.43;;;;;;;9.69;66.19;99186.66;5034334;28;20083;-59
2021/10/13 05:26:53;;;;;;;18.05;9.63;;;;;;;9.55;67.39;99196.72;5046864;28;20068;-60
2021/10/13 05:29:19;;;;;;;22.52;11.68;;;;;;;9.24;69.43;99183.22;5034044;28;20037;-59
2021/10/13 05:31:45;;;;;;;23.15;10.48;;;;;;;9.14;71.21;99194.81;5011637;28;20033;-60
2021/10/13 05:34:10;;;;;;;18.70;10.70;;;;;;;8.93;72.88;99183.47;5028812;28;20041;-57
2021/10/13 05:36:36;;;;;;;19.55;10.82;;;;;;;8.89;74.41;99194.88;5039256;28;20071;-58
2021/10/13 05:39:02;;;;;;;24.30;11.13;;;;;;;8.84;75.13;99189.00;5032207;28;20090;-59
2021/10/13 05:41:28;;;;;;;18.17;11.25;;;;;;;8.84;75.95;99189.84;5044230;28;20065;-59
2021/10/13 05:43:53;;;;;;;20.50;10.25;;;;;;;8.80;76.44;99195.16;5031629;28;20045;-58
2021/10/13 05:46:19;;;;;;;18.83;9.77;;;;;;;8.65;77.17;99172.38;5048155;28;20044;-61
2021/10/13 05:48:47;;;;;;;24.40;12.02;;;;;;;8.70;77.97;99186.88;5032504;28;20116;-60
2021/10/13 05:51:12;;;;;;;24.65;11.38;;;;;;;8.67;79.78;99199.09;5037139;28;20049;-61
2021/10/13 05:53:38;;;;;;;25.90;12.95;;;;;;;8.62;81.30;99194.06;5047182;28;20047;-62
2021/10/13 05:56:04;;;;;;;27.67;11.77;;;;;;;8.65;81.98;99204.31;5042476;28;20056;-58
2021/10/13 05:58:30;;;;;;;18.42;10.35;;;;;;;8.54;82.35;99209.00;5034391;28;20045;-60
2021/10/13 06:00:57;;;;;;;23.38;12.27;;;;;;;8.46;82.26;99203.25;5042301;28;20045;-61
2021/10/13 06:03:22;;;;;;;19.80;10.63;;;;;;;8.40;82.90;99198.28;5048412;28;20056;-59
2021/10/13 06:05:49;;;;;;;23.40;11.20;;;;;;;8.43;82.68;99205.94;5026038;28;20123;-61
2021/10/13 06:08:14;;;;;;;22.48;10.40;;;;;;;8.45;82.35;99217.09;5025115;28;20041;-61
2021/10/13 06:10:40;;;;;;;23.42;10.50;;;;;;;8.46;82.62;99216.22;5029170;28;20147;-59
2021/10/13 06:13:06;;;;;;;20.08;10.65;;;;;;;8.50;82.60;99205.69;5042464;28;20052;-59
2021/10/13 06:15:34;;;;;;;20.23;10.02;;;;;;;8.56;82.56;99194.28;5042395;28;20052;-61
2021/10/13 06:18:07;;;;;;;21.88;11.02;;;;;;;8.66;82.05;99187.03;5030734;28;20485;-60
2021/10/13 06:20:33;;;;;;;22.88;12.32;;;;;;;8.76;82.25;99183.22;5029027;28;20143;-60
2021/10/13 06:22:59;;;;;;;20.38;10.88;;;;;;;8.85;81.74;99188.06;5029778;28;20099;-46
2021/10/13 06:25:26;;;;;;;20.70;11.27;;;;;;;8.92;81.58;99177.44;5032318;28;20441;-60
2021/10/13 06:27:52;;;;;;;27.90;12.10;;;;;;;9.04;81.61;99177.91;5030604;28;20144;-60
2021/10/13 06:30:18;;;;;;;25.85;12.55;;;;;;;9.23;81.28;99164.22;5030684;28;20041;-58
2021/10/13 06:32:43;;;;;;;22.05;11.60;;;;;;;9.55;80.98;99168.19;5037008;28;20043;-60
2021/10/13 06:35:10;;;;;;;23.77;12.05;;;;;;;9.88;80.43;99172.97;5023718;28;20048;-60
2021/10/13 06:37:35;;;;;;;19.95;10.80;;;;;;;10.06;79.09;99177.41;5030432;28;20045;-58
2021/10/13 06:40:01;;;;;;;22.98;11.73;;;;;;;10.11;79.14;99175.47;5042209;28;20143;-60
2021/10/13 06:42:27;;;;;;;25.23;12.50;;;;;;;10.01;78.29;99156.81;5030599;28;20103;-58
2021/10/13 06:44:53;;;;;;;27.45;11.75;;;;;;;10.16;77.88;99166.63;5030163;28;20044;-61
2021/10/13 06:47:18;;;;;;;20.55;10.88;;;;;;;10.33;77.58;99160.72;5037956;28;20531;-61
2021/10/13 06:49:45;;;;;;;17.50;10.50;;;;;;;10.50;76.16;99160.03;5042154;28;20053;-56
2021/10/13 06:52:11;;;;;;;16.75;10.80;;;;;;;10.56;74.91;99164.97;5038018;28;20037;-58
2021/10/13 06:54:36;;;;;;;23.65;10.77;;;;;;;10.58;73.74;99168.34;5028271;28;20130;-58
2021/10/13 06:57:02;;;;;;;22.67;10.40;;;;;;;10.55;73.22;99156.34;5032596;28;20045;-59
2021/10/13 06:59:28;;;;;;;22.58;10.80;;;;;;;10.66;71.92;99175.81;5038094;28;20104;-59
2021/10/13 07:01:54;;;;;;;22.00;11.35;;;;;;;10.63;71.84;99171.59;5034577;28;20047;-63
2021/10/13 07:04:20;;;;;;;21.25;9.98;;;;;;;10.65;71.01;99177.56;5045803;28;20041;-66
2021/10/13 07:06:46;;;;;;;25.70;10.30;;;;;;;10.59;70.94;99183.88;5030457;28;20045;-66
2021/10/13 07:09:11;;;;;;;21.40;11.00;;;;;;;10.66;70.58;99188.81;5028443;28;20043;-65
2021/10/13 07:11:37;;;;;;;23.02;10.13;;;;;;;10.66;69.97;99189.66;5029632;28;20528;-64
2021/10/13 07:14:06;;;;;;;20.85;10.90;;;;;;;10.63;69.39;99187.19;5041908;28;20513;-65
2021/10/13 07:16:32;;;;;;;26.43;10.77;;;;;;;10.62;69.15;99186.34;5047532;28;20049;-66
2021/10/13 07:18:58;;;;;;;21.35;10.52;;;;;;;10.66;68.50;99176.66;5049256;28;20055;-64
2021/10/13 07:21:23;;;;;;;21.33;10.52;;;;;;;10.68;68.83;99180.03;5044674;28;20037;-66
2021/10/13 07:23:49;;;;;;;20.38;10.65;;;;;;;10.75;68.21;99165.88;5024310;28;20065;-66
2021/10/13 07:26:15;;;;;;;20.88;10.77;;;;;;;10.96;68.04;99161.47;5009731;28;20034;-65
2021/10/13 07:28:42;;;;;;;24.10;10.40;;;;;;;11.22;67.10;99163.75;5009726;28;20698;-65
2021/10/13 07:31:08;;;;;;;18.75;10.20;;;;;;;11.40;66.58;99155.13;5027020;28;20038;-65
2021/10/13 07:33:34;;;;;;;22.40;10.60;;;;;;;11.73;65.93;99193.53;5048171;28;20040;-67
2021/10/13 07:36:00;;;;;;;26.42;10.52;;;;;;;11.82;65.00;99199.19;5049387;28;20128;-62
2021/10/13 07:38:26;;;;;;;19.55;10.57;;;;;;;11.79;64.84;99193.25;5049287;28;20591;-67
2021/10/13 07:40:52;;;;;;;20.10;10.65;;;;;;;11.75;64.41;99191.72;5048103;28;20623;-65
2021/10/13 07:43:18;;;;;;;18.65;9.82;;;;;;;11.72;64.48;99195.25;5030768;28;20099;-65
2021/10/13 07:45:43;;;;;;;21.83;10.68;;;;;;;11.75;64.27;99194.31;5032807;28;20037;-67
2021/10/13 07:48:10;;;;;;;21.77;11.10;;;;;;;11.76;64.00;99202.06;5033644;28;20057;-66
2021/10/13 07:50:35;;;;;;;20.27;10.52;;;;;;;11.72;64.09;99204.88;5033214;28;20049;-67
2021/10/13 07:53:02;;;;;;;25.45;10.90;;;;;;;11.71;63.35;99201.41;5049611;28;20037;-66
2021/10/13 07:55:27;;;;;;;27.15;10.52;;;;;;;11.71;63.36;99203.16;5053541;28;20516;-67
2021/10/13 07:57:53;;;;;;;21.45;10.20;;;;;;;11.73;62.87;99183.97;5052173;28;20079;-67
2021/10/13 08:00:20;;;;;;;21.52;10.85;;;;;;;11.75;62.08;99191.72;5013643;28;20160;-67
2021/10/13 08:02:49;;;;;;;23.38;10.27;;;;;;;11.79;61.67;99186.28;5025358;28;20049;-64
2021/10/13 08:05:17;;;;;;;26.00;10.88;;;;;;;11.79;61.41;99183.69;5031761;28;20064;-67
2021/10/13 08:07:44;;;;;;;24.13;11.55;;;;;;;11.81;61.17;99184.47;5015040;28;20076;-66
2021/10/13 08:10:10;;;;;;;22.63;11.55;;;;;;;11.87;61.12;99183.34;5033123;28;20041;-64
2021/10/13 08:12:36;;;;;;;24.95;11.25;;;;;;;11.91;60.92;99173.59;5040695;28;20539;-67
2021/10/13 08:15:02;;;;;;;22.00;11.13;;;;;;;11.84;61.21;99160.03;5033743;28;20090;-67
2021/10/13 08:17:29;;;;;;;23.05;11.50;;;;;;;11.87;61.21;99173.78;5032951;28;20048;-65
2021/10/13 08:19:54;;;;;;;22.40;10.55;;;;;;;11.87;61.36;99172.91;5031477;28;20041;-66
2021/10/13 08:22:22;;;;;;;18.25;10.80;;;;;;;11.94;60.40;99163.88;5020717;28;20400;-67
2021/10/13 08:24:48;;;;;;;25.08;10.80;;;;;;;12.35;59.46;99169.69;5039524;28;20508;-65
2021/10/13 08:27:14;;;;;;;22.75;10.18;;;;;;;12.61;58.92;99160.56;5031114;28;20051;-66
2021/10/13 08:29:40;;;;;;;20.33;11.07;;;;;;;12.80;58.23;99166.50;5030911;28;20480;-67
2021/10/13 08:32:06;;;;;;;21.30;11.45;;;;;;;13.10;57.72;99148.41;5016367;28;20037;-66
2021/10/13 08:34:32;;;;;;;18.65;10.70;;;;;;;13.44;56.47;99163.16;5034644;28;20033;-64
2021/10/13 08:36:57;;;;;;;23.13;10.57;;;;;;;13.99;54.92;99147.84;5052504;28;20044;-65
2021/10/13 08:39:23;;;;;;;24.00;10.85;;;;;;;14.78;52.82;99151.09;5052585;28;20131;-68
2021/10/13 08:41:49;;;;;;;20.95;10.30;;;;;;;14.93;51.97;99158.00;5052476;28;20037;-67
2021/10/13 08:44:15;;;;;;;22.20;10.18;;;;;;;15.22;51.65;99161.47;5033590;28;20183;-66
2021/10/13 08:46:41;;;;;;;26.15;12.15;;;;;;;15.08;52.05;99157.06;5031314;28;20489;-66
2021/10/13 08:49:07;;;;;;;23.58;11.55;;;;;;;15.13;51.42;99167.25;5032361;28;20052;-67
2021/10/13 08:51:34;;;;;;;23.08;11.30;;;;;;;15.64;49.85;99152.75;5015174;28;20501;-65
2021/10/13 08:54:00;;;;;;;22.65;10.77;;;;;;;15.63;50.19;99158.94;5047290;28;20040;-66
2021/10/13 08:56:26;;;;;;;20.98;11.43;;;;;;;15.14;50.24;99121.81;5052021;28;20068;-66
2021/10/13 08:58:51;;;;;;;21.58;11.27;;;;;;;15.36;50.20;99137.88;5035094;28;20049;-66
2021/10/13 09:01:17;;;;;;;21.27;11.48;;;;;;;15.98;49.34;99123.41;5012505;28;20073;-66
2021/10/13 09:03:48;;;;;;;22.45;11.52;;;;;;;17.53;45.07;99139.03;5034579;28;20037;-65
2021/10/13 09:06:26;;;;;;;20.92;10.88;;;;;;;18.74;42.62;99138.84;5051738;28;20049;-65
2021/10/13 09:09:04;;;;;;;21.15;11.07;;;;;;;18.76;42.13;99142.22;5050852;28;20114;-66
2021/10/13 09:11:34;;;;;;;29.15;13.50;;;;;;;18.67;42.79;99137.66;5044149;28;20040;-66
2021/10/13 09:14:09;;;;;;;23.17;12.15;;;;;;;19.21;41.59;99140.47;5032179;28;20045;-67
2021/10/13 09:17:09;;;;;;;19.10;11.40;;;;;;;20.52;39.58;99136.78;5047190;28;20053;-66
2021/10/13 09:19:45;;;;;;;21.88;12.13;;;;;;;21.54;37.09;99133.28;5031645;28;20041;-64
2021/10/13 09:22:13;;;;;;;24.80;12.30;;;;;;;22.54;35.98;99137.41;5040413;28;20044;-64
2021/10/13 09:24:44;;;;;;;19.85;13.43;;;;;;;22.68;34.88;99133.47;5039955;28;20040;-66
2021/10/13 09:27:24;;;;;;;20.55;12.25;;;;;;;22.82;34.30;99135.69;5031645;28;20041;-66
2021/10/13 09:29:51;;;;;;;24.48;12.60;;;;;;;22.82;34.15;99137.53;5030636;28;20057;-65
2021/10/13 09:32:25;;;;;;;25.17;13.40;;;;;;;22.06;35.04;99141.88;5042604;28;20048;-65
2021/10/13 09:34:52;;;;;;;21.85;13.68;;;;;;;22.54;34.63;99150.66;5052381;28;20473;-66
2021/10/13 09:37:18;;;;;;;25.60;13.50;;;;;;;23.54;32.99;99135.88;5051093;28;20139;-67
2021/10/13 09:40:10;;;;;;;27.27;13.40;;;;;;;24.03;31.49;99142.53;5066963;28;20132;-67
2021/10/13 09:42:38;;;;;;;23.27;13.07;;;;;;;24.46;31.39;99141.81;5037023;28;20053;-66
2021/10/13 09:45:05;;;;;;;21.43;13.37;;;;;;;25.10;30.42;99145.94;5030562;28;20037;-65
2021/10/13 09:47:35;;;;;;;22.23;13.80;;;;;;;25.55;29.87;99143.00;5014137;28;20144;-65
2021/10/13 09:50:06;;;;;;;21.02;13.07;;;;;;;26.13;28.75;99137.66;5031902;28;20049;-65
2021/10/13 09:52:32;;;;;;;26.42;13.00;;;;;;;26.41;28.13;99134.72;5043659;28;20140;-63
2021/10/13 09:55:11;;;;;;;19.70;13.15;;;;;;;26.47;28.19;99148.22;5039060;28;20124;-66
2021/10/13 09:57:48;;;;;;;22.77;13.00;;;;;;;26.83;27.37;99140.69;5032012;28;20033;-66
2021/10/13 10:00:21;;;;;;;22.67;13.23;;;;;;;26.59;27.72;99142.53;5011673;28;20137;-67
2021/10/13 10:02:50;;;;;;;19.75;12.57;;;;;;;26.82;28.04;99146.16;5023213;28;20053;-68
2021/10/13 10:05:19;;;;;;;21.95;12.20;;;;;;;26.56;27.86;99133.03;5013543;28;20417;-66
2021/10/13 10:07:59;;;;;;;20.95;12.52;;;;;;;26.34;28.21;99141.69;5029179;28;20148;-64
2021/10/13 10:10:25;;;;;;;20.92;12.07;;;;;;;26.19;28.39;99130.00;5030966;28;20040;-65
2021/10/13 10:13:11;;;;;;;18.40;12.45;;;;;;;26.73;27.62;99141.84;5023794;28;20032;-64
2021/10/13 10:15:48;;;;;;;21.17;13.30;;;;;;;26.68;27.37;99142.38;5049397;28;20041;-65
2021/10/13 10:18:33;;;;;;;17.65;13.20;;;;;;;27.10;27.31;99134.16;5049870;28;20037;-67
2021/10/13 10:21:15;;;;;;;20.50;12.55;;;;;;;27.84;26.46;99135.53;5033080;28;20037;-64
2021/10/13 10:23:41;;;;;;;23.52;13.23;;;;;;;27.57;26.37;99128.00;5033437;28;20033;-66
2021/10/13 10:26:25;;;;;;;19.55;12.98;;;;;;;27.23;26.48;99150.44;5030831;28;20038;-66
2021/10/13 10:28:51;;;;;;;20.27;13.50;;;;;;;26.74;27.29;99155.03;5030998;28;20136;-66
2021/10/13 10:31:28;;;;;;;23.92;14.15;;;;;;;27.36;26.56;99149.91;5029506;28;20124;-64
2021/10/13 10:34:03;;;;;;;22.30;14.20;;;;;;;27.25;26.36;99156.44;5046795;28;20505;-65
2021/10/13 10:36:35;;;;;;;22.35;12.90;;;;;;;26.42;27.10;99165.72;5051568;28;20132;-66
2021/10/13 10:39:03;;;;;;;17.85;12.93;;;;;;;25.39;28.42;99168.69;5051263;28;20071;-64
2021/10/13 10:41:39;;;;;;;25.45;13.93;;;;;;;24.55;29.44;99152.50;5050239;28;20111;-65
2021/10/13 10:44:35;;;;;;;22.27;13.82;;;;;;;23.49;30.98;99162.03;5048643;28;20433;-66
2021/10/13 10:47:08;;;;;;;26.02;14.00;;;;;;;23.18;31.72;99160.59;5048759;28;20052;-67
2021/10/13 10:49:43;;;;;;;20.30;13.60;;;;;;;23.43;31.48;99167.06;5047778;28;20481;-66
2021/10/13 10:52:10;;;;;;;24.50;14.02;;;;;;;23.20;31.74;99163.91;5049912;28;20047;-66
2021/10/13 10:54:37;;;;;;;27.05;13.68;;;;;;;22.92;32.24;99168.34;5032762;28;20466;-65
2021/10/13 10:57:48;;;;;;;25.52;13.90;;;;;;;23.00;32.43;99163.16;5029149;28;20048;-67
2021/10/13 11:00:23;;;;;;;24.17;13.98;;;;;;;23.45;32.21;99155.31;5009996;28;20535;-66
2021/10/13 11:02:49;;;;;;;29.85;13.52;;;;;;;23.96;31.43;99161.91;5013846;28;20068;-65
2021/10/13 11:05:16;;;;;;;20.00;13.50;;;;;;;24.39;30.78;99153.22;5048920;28;20041;-66
2021/10/13 11:07:42;;;;;;;26.13;13.82;;;;;;;25.04;30.19;99145.72;5015684;28;20526;-67
2021/10/13 11:10:10;;;;;;;22.17;14.07;;;;;;;25.48;29.42;99165.09;5049580;28;20048;-66
2021/10/13 11:13:05;;;;;;;22.48;14.02;;;;;;;24.56;30.23;99157.66;5049184;28;20037;-66
2021/10/13 11:15:31;;;;;;;24.75;14.18;;;;;;;23.44;31.45;99158.13;5019879;28;20092;-66
2021/10/13 11:18:09;;;;;;;21.73;14.30;;;;;;;22.47;32.86;99154.84;5028252;28;20041;-67
2021/10/13 11:20:35;;;;;;;24.55;14.38;;;;;;;22.10;33.47;99152.06;4995477;28;20037;-67
2021/10/13 11:23:03;;;;;;;22.73;13.80;;;;;;;22.39;33.25;99160.03;5030646;28;20048;-68
2021/10/13 11:25:30;;;;;;;21.73;13.70;;;;;;;22.47;33.07;99148.72;5025257;28;20105;-65
2021/10/13 11:28:00;;;;;;;25.45;14.45;;;;;;;22.80;32.95;99157.06;5025577;28;20042;-67